createdAt,value
2017-05-25T00:00:24.116Z,20.99
2017-05-25T00:01:25.539Z,20.96
2017-05-25T00:02:26.957Z,20.96
2017-05-25T00:03:28.375Z,21.00
2017-05-25T00:04:29.788Z,20.99
2017-05-25T00:05:31.202Z,21.00
2017-05-25T00:06:32.618Z,20.97
2017-05-25T00:07:34.031Z,20.96
2017-05-25T00:08:35.451Z,20.82
2017-05-25T00:09:36.880Z,20.87
2017-05-25T00:10:38.297Z,20.90
2017-05-25T00:11:39.712Z,20.96
2017-05-25T00:12:41.138Z,20.87
2017-05-25T00:13:42.999Z,20.92
2017-05-25T00:14:44.426Z,20.88
2017-05-25T00:15:45.849Z,20.93
2017-05-25T00:16:47.275Z,20.88
2017-05-25T00:17:48.689Z,20.92
2017-05-25T00:18:50.111Z,20.87
2017-05-25T00:19:51.551Z,20.88
2017-05-25T00:20:52.984Z,20.96
2017-05-25T00:21:54.402Z,20.85
2017-05-25T00:22:55.821Z,20.87
2017-05-25T00:23:57.237Z,20.90
2017-05-25T00:24:58.660Z,20.90
2017-05-25T00:26:00.072Z,20.84
2017-05-25T00:27:01.499Z,20.90
2017-05-25T00:28:02.916Z,20.87
2017-05-25T00:29:04.329Z,20.87
2017-05-25T00:30:05.746Z,20.84
2017-05-25T00:31:07.171Z,20.92
2017-05-25T00:32:08.585Z,20.84
2017-05-25T00:33:10.000Z,20.82
2017-05-25T00:34:11.415Z,20.88
2017-05-25T00:35:12.852Z,20.84
2017-05-25T00:36:14.263Z,20.84
2017-05-25T00:37:15.681Z,20.78
2017-05-25T00:38:17.108Z,20.81
2017-05-25T00:39:18.525Z,20.80
2017-05-25T00:40:19.946Z,20.81
2017-05-25T00:41:21.364Z,20.81
2017-05-25T00:42:22.784Z,20.82
2017-05-25T00:43:24.208Z,20.84
2017-05-25T00:44:25.618Z,20.82
2017-05-25T00:45:27.045Z,20.78
2017-05-25T00:46:28.465Z,20.81
2017-05-25T00:47:29.879Z,20.81
2017-05-25T00:48:31.294Z,20.84
2017-05-25T00:49:32.713Z,20.75
2017-05-25T00:50:34.147Z,20.74
2017-05-25T00:51:35.572Z,20.78
2017-05-25T00:52:36.999Z,20.70
2017-05-25T00:53:38.417Z,20.74
2017-05-25T00:54:39.848Z,20.84
2017-05-25T00:55:41.271Z,20.77
2017-05-25T00:56:42.693Z,20.72
2017-05-25T00:57:44.120Z,20.72
2017-05-25T00:58:45.553Z,20.70
2017-05-25T00:59:46.974Z,20.72
2017-05-25T01:00:48.395Z,20.69
2017-05-25T01:01:49.820Z,20.77
2017-05-25T01:02:51.235Z,20.78
2017-05-25T01:03:52.652Z,20.69
2017-05-25T01:04:54.066Z,20.77
2017-05-25T01:05:55.492Z,20.72
2017-05-25T01:06:56.917Z,20.75
2017-05-25T01:07:58.332Z,20.75
2017-05-25T01:08:59.762Z,20.75
2017-05-25T01:10:01.173Z,20.72
2017-05-25T01:11:02.592Z,20.77
2017-05-25T01:12:04.008Z,20.74
2017-05-25T01:13:05.422Z,20.77
2017-05-25T01:14:06.840Z,20.77
2017-05-25T01:15:08.270Z,20.74
2017-05-25T01:16:09.684Z,20.72
2017-05-25T01:17:11.115Z,20.72
2017-05-25T01:18:12.519Z,20.72
2017-05-25T01:19:13.950Z,20.74
2017-05-25T01:20:15.389Z,20.69
2017-05-25T01:21:16.803Z,20.72
2017-05-25T01:22:18.245Z,20.74
2017-05-25T01:23:19.668Z,20.69
2017-05-25T01:24:21.093Z,20.74
2017-05-25T01:25:22.515Z,20.72
2017-05-25T01:26:23.940Z,20.75
2017-05-25T01:27:25.360Z,20.67
2017-05-25T01:28:26.785Z,20.67
2017-05-25T01:29:28.211Z,20.67
2017-05-25T01:30:29.633Z,20.63
2017-05-25T01:31:31.053Z,20.72
2017-05-25T01:32:32.471Z,20.63
2017-05-25T01:33:33.891Z,20.70
2017-05-25T01:34:35.306Z,20.74
2017-05-25T01:35:36.734Z,20.69
2017-05-25T01:36:38.141Z,20.70
2017-05-25T01:37:39.560Z,20.63
2017-05-25T01:38:40.969Z,20.63
2017-05-25T01:39:42.399Z,20.60
2017-05-25T01:40:43.829Z,20.60
2017-05-25T01:41:45.243Z,20.59
2017-05-25T01:42:46.662Z,20.65
2017-05-25T01:43:48.095Z,20.56
2017-05-25T01:44:49.523Z,20.58
2017-05-25T01:45:50.941Z,20.58
2017-05-25T01:46:52.365Z,20.60
2017-05-25T01:47:53.773Z,20.60
2017-05-25T01:48:55.189Z,20.56
2017-05-25T01:49:56.610Z,20.63
2017-05-25T01:50:58.033Z,20.62
2017-05-25T01:51:59.452Z,20.58
2017-05-25T01:53:00.866Z,20.56
2017-05-25T01:54:02.289Z,20.56
2017-05-25T01:55:03.704Z,20.58
2017-05-25T01:56:05.128Z,20.52
2017-05-25T01:57:06.562Z,20.58
2017-05-25T01:58:07.975Z,20.52
2017-05-25T01:59:09.389Z,20.62
2017-05-25T02:00:10.806Z,20.60
2017-05-25T02:01:12.221Z,20.55
2017-05-25T02:02:13.641Z,20.63
2017-05-25T02:03:15.056Z,20.62
2017-05-25T02:04:16.492Z,20.59
2017-05-25T02:05:17.918Z,20.60
2017-05-25T02:06:19.329Z,20.62
2017-05-25T02:07:20.747Z,20.63
2017-05-25T02:08:22.167Z,20.66
2017-05-25T02:09:23.580Z,20.52
2017-05-25T02:10:24.998Z,20.55
2017-05-25T02:11:26.413Z,20.55
2017-05-25T02:12:27.831Z,20.62
2017-05-25T02:13:29.246Z,20.51
2017-05-25T02:14:30.658Z,20.55
2017-05-25T02:15:32.091Z,20.65
2017-05-25T02:16:33.504Z,20.55
2017-05-25T02:17:34.919Z,20.58
2017-05-25T02:18:36.339Z,20.51
2017-05-25T02:19:37.759Z,20.52
2017-05-25T02:20:39.182Z,20.66
2017-05-25T02:21:40.631Z,20.58
2017-05-25T02:22:42.033Z,20.51
2017-05-25T02:23:43.454Z,20.58
2017-05-25T02:24:44.870Z,20.51
2017-05-25T02:25:46.289Z,20.55
2017-05-25T02:26:47.713Z,20.55
2017-05-25T02:27:49.134Z,20.52
2017-05-25T02:28:50.568Z,20.51
2017-05-25T02:29:51.978Z,20.51
2017-05-25T02:30:53.395Z,20.56
2017-05-25T02:31:54.816Z,20.50
2017-05-25T02:32:56.234Z,20.52
2017-05-25T02:33:57.655Z,20.48
2017-05-25T02:34:59.068Z,20.48
2017-05-25T02:36:00.486Z,20.50
2017-05-25T02:37:01.900Z,20.52
2017-05-25T02:38:03.316Z,20.40
2017-05-25T02:39:04.733Z,20.44
2017-05-25T02:40:06.150Z,20.50
2017-05-25T02:41:07.605Z,20.50
2017-05-25T02:42:09.024Z,20.51
2017-05-25T02:43:10.444Z,20.47
2017-05-25T02:44:11.854Z,20.48
2017-05-25T02:45:13.277Z,20.48
2017-05-25T02:46:14.700Z,20.55
2017-05-25T02:47:16.133Z,20.48
2017-05-25T02:48:17.562Z,20.44
2017-05-25T02:49:19.003Z,20.48
2017-05-25T02:50:20.405Z,20.47
2017-05-25T02:51:21.827Z,20.48
2017-05-25T02:52:23.237Z,20.41
2017-05-25T02:53:24.706Z,20.40
2017-05-25T02:54:26.120Z,20.44
2017-05-25T02:55:27.540Z,20.40
2017-05-25T02:56:28.974Z,20.40
2017-05-25T02:57:30.379Z,20.41
2017-05-25T02:58:31.794Z,20.47
2017-05-25T02:59:33.207Z,20.40
2017-05-25T03:00:34.632Z,20.44
2017-05-25T03:01:36.062Z,20.44
2017-05-25T03:02:37.475Z,20.40
2017-05-25T03:03:38.894Z,20.47
2017-05-25T03:04:40.320Z,20.41
2017-05-25T03:05:41.745Z,20.41
2017-05-25T03:06:43.162Z,20.43
2017-05-25T03:07:44.578Z,20.44
2017-05-25T03:08:45.998Z,20.40
2017-05-25T03:09:47.415Z,20.43
2017-05-25T03:10:48.831Z,20.40
2017-05-25T03:11:50.264Z,20.39
2017-05-25T03:12:51.680Z,20.41
2017-05-25T03:13:53.096Z,20.39
2017-05-25T03:14:54.521Z,20.43
2017-05-25T03:15:55.935Z,20.41
2017-05-25T03:16:57.363Z,20.41
2017-05-25T03:17:58.778Z,20.44
2017-05-25T03:19:00.192Z,20.40
2017-05-25T03:20:01.603Z,20.40
2017-05-25T03:21:03.032Z,20.41
2017-05-25T03:22:04.448Z,20.43
2017-05-25T03:23:05.865Z,20.43
2017-05-25T03:24:07.294Z,20.37
2017-05-25T03:25:08.713Z,20.40
2017-05-25T03:26:10.135Z,20.41
2017-05-25T03:27:11.559Z,20.40
2017-05-25T03:28:12.974Z,20.41
2017-05-25T03:29:14.397Z,20.39
2017-05-25T03:30:15.814Z,20.39
2017-05-25T03:31:17.240Z,20.41
2017-05-25T03:32:18.668Z,20.39
2017-05-25T03:33:20.077Z,20.40
2017-05-25T03:34:21.505Z,20.37
2017-05-25T03:35:22.932Z,20.39
2017-05-25T03:36:24.357Z,20.37
2017-05-25T03:37:25.778Z,20.43
2017-05-25T03:38:27.208Z,20.37
2017-05-25T03:39:28.643Z,20.44
2017-05-25T03:40:30.039Z,20.43
2017-05-25T03:41:31.456Z,20.39
2017-05-25T03:42:32.880Z,20.40
2017-05-25T03:43:34.306Z,20.43
2017-05-25T03:44:35.745Z,20.40
2017-05-25T03:45:37.150Z,20.41
2017-05-25T03:46:38.567Z,20.44
2017-05-25T03:47:39.997Z,20.32
2017-05-25T03:48:41.413Z,20.43
2017-05-25T03:49:42.833Z,20.36
2017-05-25T03:50:44.249Z,20.37
2017-05-25T03:51:45.669Z,20.41
2017-05-25T03:52:47.102Z,20.43
2017-05-25T03:53:48.517Z,20.40
2017-05-25T03:54:49.941Z,20.43
2017-05-25T03:55:51.356Z,20.39
2017-05-25T03:56:52.777Z,20.41
2017-05-25T03:57:54.199Z,20.47
2017-05-25T03:58:55.612Z,20.44
2017-05-25T03:59:57.045Z,20.52
2017-05-25T04:00:58.472Z,20.51
2017-05-25T04:01:59.894Z,20.44
2017-05-25T04:03:01.316Z,20.51
2017-05-25T04:04:02.729Z,20.44
2017-05-25T04:05:04.149Z,20.52
2017-05-25T04:06:05.573Z,20.51
2017-05-25T04:07:06.997Z,20.50
2017-05-25T04:08:08.409Z,20.44
2017-05-25T04:09:09.842Z,20.48
2017-05-25T04:10:11.266Z,20.47
2017-05-25T04:11:12.687Z,20.44
2017-05-25T04:12:14.112Z,20.41
2017-05-25T04:13:15.532Z,20.51
2017-05-25T04:14:16.948Z,20.44
2017-05-25T04:15:18.371Z,20.50
2017-05-25T04:16:19.788Z,20.48
2017-05-25T04:17:21.210Z,20.43
2017-05-25T04:18:22.647Z,20.47
2017-05-25T04:19:24.067Z,20.50
2017-05-25T04:20:25.486Z,20.47
2017-05-25T04:21:26.916Z,20.48
2017-05-25T04:22:28.535Z,20.50
2017-05-25T04:23:29.960Z,20.51
2017-05-25T04:24:31.377Z,20.51
2017-05-25T04:25:32.799Z,20.47
2017-05-25T04:26:34.218Z,20.47
2017-05-25T04:27:35.664Z,20.50
2017-05-25T04:28:37.077Z,20.47
2017-05-25T04:29:38.507Z,20.51
2017-05-25T04:30:39.927Z,20.51
2017-05-25T04:31:41.349Z,20.43
2017-05-25T04:32:42.786Z,20.41
2017-05-25T04:33:44.212Z,20.50
2017-05-25T04:34:45.644Z,20.65
2017-05-25T04:35:47.065Z,20.52
2017-05-25T04:36:48.472Z,20.59
2017-05-25T04:37:49.893Z,20.59
2017-05-25T04:38:51.309Z,20.66
2017-05-25T04:39:52.725Z,20.58
2017-05-25T04:40:54.158Z,20.66
2017-05-25T04:41:55.961Z,20.52
2017-05-25T04:42:57.381Z,20.56
2017-05-25T04:43:58.843Z,20.50
2017-05-25T04:45:00.242Z,20.51
2017-05-25T04:46:01.663Z,20.56
2017-05-25T04:47:03.086Z,20.52
2017-05-25T04:48:04.516Z,20.51
2017-05-25T04:49:05.934Z,20.52
2017-05-25T04:50:07.352Z,20.47
2017-05-25T04:51:08.772Z,20.56
2017-05-25T04:52:10.192Z,20.52
2017-05-25T04:53:11.623Z,20.55
2017-05-25T04:54:13.046Z,20.51
2017-05-25T04:55:14.467Z,20.56
2017-05-25T04:56:15.887Z,20.58
2017-05-25T04:57:17.320Z,20.59
2017-05-25T04:58:18.735Z,20.58
2017-05-25T04:59:20.154Z,20.58
2017-05-25T05:00:21.576Z,20.66
2017-05-25T05:01:22.996Z,20.66
2017-05-25T05:02:24.421Z,20.66
2017-05-25T05:03:25.859Z,20.66
2017-05-25T05:04:27.284Z,20.74
2017-05-25T05:05:28.706Z,20.62
2017-05-25T05:06:30.152Z,20.67
2017-05-25T05:07:34.346Z,20.72
2017-05-25T05:08:38.867Z,20.70
2017-05-25T05:09:41.574Z,20.67
2017-05-25T05:10:42.960Z,20.66
2017-05-25T05:11:44.375Z,20.74
2017-05-25T05:12:47.908Z,20.74
2017-05-25T05:13:52.197Z,20.74
2017-05-25T05:14:53.625Z,20.72
2017-05-25T05:15:55.281Z,20.70
2017-05-25T05:16:56.723Z,20.74
2017-05-25T05:17:59.000Z,20.74
2017-05-25T05:19:00.434Z,20.77
2017-05-25T05:20:04.853Z,20.75
2017-05-25T05:21:06.224Z,20.74
2017-05-25T05:22:07.647Z,20.70
2017-05-25T05:23:09.195Z,20.74
2017-05-25T05:24:10.617Z,20.74
2017-05-25T05:25:13.195Z,20.75
2017-05-25T05:26:16.295Z,20.74
2017-05-25T05:27:17.723Z,20.69
2017-05-25T05:28:19.112Z,20.69
2017-05-25T05:29:20.535Z,20.70
2017-05-25T05:30:22.563Z,20.80
2017-05-25T05:31:24.466Z,20.81
2017-05-25T05:32:25.902Z,20.80
2017-05-25T05:33:27.320Z,20.85
2017-05-25T05:34:28.741Z,20.82
2017-05-25T05:35:30.179Z,20.87
2017-05-25T05:36:32.010Z,20.80
2017-05-25T05:37:33.695Z,20.84
2017-05-25T05:38:35.244Z,20.88
2017-05-25T05:39:36.668Z,20.85
2017-05-25T05:40:38.089Z,20.84
2017-05-25T05:41:39.503Z,20.88
2017-05-25T05:42:43.113Z,20.88
2017-05-25T05:43:44.484Z,20.88
2017-05-25T05:44:47.899Z,20.90
2017-05-25T05:45:51.157Z,20.90
2017-05-25T05:46:55.278Z,20.95
2017-05-25T05:47:58.780Z,20.95
2017-05-25T05:49:01.999Z,20.88
2017-05-25T05:50:05.983Z,20.85
2017-05-25T05:51:09.382Z,20.82
2017-05-25T05:52:10.807Z,20.84
2017-05-25T05:53:12.228Z,20.88
2017-05-25T05:54:15.506Z,20.92
2017-05-25T05:55:18.255Z,20.99
2017-05-25T05:56:22.548Z,21.02
2017-05-25T05:57:25.764Z,20.99
2017-05-25T05:58:29.003Z,21.02
2017-05-25T05:59:33.453Z,21.00
2017-05-25T06:00:34.840Z,21.02
2017-05-25T06:01:36.280Z,21.05
2017-05-25T06:02:38.683Z,21.09
2017-05-25T06:03:41.922Z,21.02
2017-05-25T06:04:45.268Z,21.02
2017-05-25T06:05:46.691Z,21.07
2017-05-25T06:06:49.802Z,21.12
2017-05-25T06:07:51.225Z,21.15
2017-05-25T06:08:52.646Z,21.09
2017-05-25T06:09:54.069Z,21.17
2017-05-25T06:10:55.495Z,21.18
2017-05-25T06:11:59.444Z,21.14
2017-05-25T06:13:00.955Z,21.20
2017-05-25T06:14:02.398Z,21.20
2017-05-25T06:15:03.800Z,21.24
2017-05-25T06:16:06.084Z,21.15
2017-05-25T06:17:07.490Z,21.15
2017-05-25T06:18:09.819Z,21.24
2017-05-25T06:19:13.846Z,21.21
2017-05-25T06:20:16.783Z,21.24
2017-05-25T06:21:18.831Z,21.32
2017-05-25T06:22:20.220Z,21.32
2017-05-25T06:23:24.568Z,21.25
2017-05-25T06:24:25.952Z,21.32
2017-05-25T06:25:27.365Z,21.30
2017-05-25T06:26:28.795Z,21.27
2017-05-25T06:27:30.227Z,21.36
2017-05-25T06:28:34.131Z,21.33
2017-05-25T06:29:35.497Z,21.30
2017-05-25T06:30:36.932Z,21.27
2017-05-25T06:31:39.666Z,21.30
2017-05-25T06:32:41.572Z,21.33
2017-05-25T06:33:44.719Z,21.30
2017-05-25T06:34:47.139Z,21.29
2017-05-25T06:35:51.223Z,21.27
2017-05-25T06:36:52.598Z,21.27
2017-05-25T06:37:54.021Z,21.27
2017-05-25T06:38:58.252Z,21.25
2017-05-25T06:39:59.670Z,21.22
2017-05-25T06:41:01.925Z,21.21
2017-05-25T06:42:03.344Z,21.21
2017-05-25T06:43:04.769Z,21.24
2017-05-25T06:44:07.341Z,21.32
2017-05-25T06:45:08.849Z,21.32
2017-05-25T06:46:12.853Z,21.21
2017-05-25T06:47:14.230Z,21.25
2017-05-25T06:48:15.661Z,21.25
2017-05-25T06:49:17.074Z,21.30
2017-05-25T06:50:21.319Z,21.27
2017-05-25T06:51:25.104Z,21.32
2017-05-25T06:52:26.544Z,21.39
2017-05-25T06:53:27.975Z,21.29
2017-05-25T06:54:29.396Z,21.39
2017-05-25T06:55:31.227Z,21.35
2017-05-25T06:56:33.121Z,21.36
2017-05-25T06:57:34.543Z,21.35
2017-05-25T06:58:35.966Z,21.40
2017-05-25T06:59:37.417Z,21.32
2017-05-25T07:00:41.008Z,21.33
2017-05-25T07:01:42.429Z,21.36
2017-05-25T07:02:43.847Z,21.35
2017-05-25T07:03:45.270Z,21.42
2017-05-25T07:04:46.697Z,21.43
2017-05-25T07:05:48.440Z,21.45
2017-05-25T07:06:51.413Z,21.35
2017-05-25T07:07:52.829Z,21.35
2017-05-25T07:09:28.837Z,19.24
2017-05-25T07:10:32.574Z,18.03
2017-05-25T07:11:33.995Z,17.27
2017-05-25T07:12:35.413Z,16.86
2017-05-25T07:13:39.624Z,16.90
2017-05-25T07:14:43.593Z,17.01
2017-05-25T07:15:47.899Z,17.11
2017-05-25T07:16:52.124Z,17.16
2017-05-25T07:17:53.884Z,17.16
2017-05-25T07:18:58.357Z,17.31
2017-05-25T07:20:02.107Z,16.90
2017-05-25T07:21:06.172Z,16.64
2017-05-25T07:22:07.688Z,16.46
2017-05-25T07:23:11.876Z,16.23
2017-05-25T07:24:15.917Z,16.38
2017-05-25T07:25:18.138Z,16.39
2017-05-25T07:26:19.543Z,16.42
2017-05-25T07:27:21.033Z,16.78
2017-05-25T07:28:24.191Z,16.72
2017-05-25T07:29:25.626Z,16.87
2017-05-25T07:30:27.407Z,16.64
2017-05-25T07:31:31.013Z,16.79
2017-05-25T07:32:32.375Z,17.20
2017-05-25T07:33:34.681Z,17.65
2017-05-25T07:34:36.109Z,17.87
2017-05-25T07:35:38.217Z,18.00
2017-05-25T07:36:39.659Z,17.85
2017-05-25T07:37:43.576Z,17.72
2017-05-25T07:38:45.083Z,17.15
2017-05-25T07:39:47.395Z,16.76
2017-05-25T07:40:50.663Z,16.79
2017-05-25T07:41:52.103Z,17.31
2017-05-25T07:42:53.544Z,17.42
2017-05-25T07:43:54.974Z,17.38
2017-05-25T07:44:58.805Z,18.00
2017-05-25T07:46:00.204Z,18.18
2017-05-25T07:47:04.709Z,18.16
2017-05-25T07:48:06.141Z,18.28
2017-05-25T07:49:08.050Z,18.60
2017-05-25T07:50:12.946Z,18.43
2017-05-25T07:51:17.046Z,17.95
2017-05-25T07:52:18.461Z,18.31
2017-05-25T07:53:21.203Z,18.81
2017-05-25T07:54:22.755Z,18.92
2017-05-25T07:55:25.616Z,19.11
2017-05-25T07:56:29.279Z,18.84
2017-05-25T07:57:30.719Z,19.02
2017-05-25T07:58:32.191Z,19.15
2017-05-25T07:59:33.627Z,19.04
2017-05-25T08:00:35.096Z,18.93
2017-05-25T08:01:37.137Z,18.74
2017-05-25T08:02:40.655Z,18.84
2017-05-25T08:03:44.136Z,19.24
2017-05-25T08:04:45.516Z,18.63
2017-05-25T08:05:49.593Z,18.56
2017-05-25T08:06:52.414Z,18.31
2017-05-25T08:07:53.820Z,18.66
2017-05-25T08:08:56.423Z,18.77
2017-05-25T08:09:57.888Z,19.19
2017-05-25T08:10:59.321Z,19.39
2017-05-25T08:12:03.737Z,19.29
2017-05-25T08:13:05.177Z,18.83
2017-05-25T08:14:06.614Z,18.78
2017-05-25T08:15:11.037Z,19.09
2017-05-25T08:16:12.403Z,18.66
2017-05-25T08:17:14.081Z,19.21
2017-05-25T08:18:15.506Z,19.54
2017-05-25T08:19:16.952Z,19.49
2017-05-25T08:20:18.397Z,18.81
2017-05-25T08:21:19.835Z,19.00
2017-05-25T08:22:21.299Z,19.26
2017-05-25T08:23:22.725Z,19.12
2017-05-25T08:24:24.155Z,19.39
2017-05-25T08:25:25.603Z,19.40
2017-05-25T08:26:27.047Z,19.47
2017-05-25T08:27:28.493Z,19.88
2017-05-25T08:28:29.945Z,20.34
2017-05-25T08:29:31.373Z,20.39
2017-05-25T08:30:32.816Z,20.02
2017-05-25T08:31:34.259Z,20.04
2017-05-25T08:32:35.696Z,19.81
2017-05-25T08:33:37.149Z,20.21
2017-05-25T08:34:38.601Z,20.75
2017-05-25T08:35:40.030Z,20.19
2017-05-25T08:36:41.453Z,19.74
2017-05-25T08:37:42.899Z,19.94
2017-05-25T08:38:44.341Z,19.59
2017-05-25T08:39:45.795Z,19.58
2017-05-25T08:40:47.244Z,20.52
2017-05-25T08:41:48.689Z,20.60
2017-05-25T08:42:50.142Z,21.12
2017-05-25T08:43:51.599Z,20.82
2017-05-25T08:44:53.026Z,21.22
2017-05-25T08:45:54.473Z,21.37
2017-05-25T08:46:55.956Z,21.30
2017-05-25T08:47:57.435Z,21.45
2017-05-25T08:48:58.881Z,21.36
2017-05-25T08:50:00.327Z,21.42
2017-05-25T08:51:01.770Z,21.54
2017-05-25T08:52:03.266Z,21.42
2017-05-25T08:53:04.713Z,21.58
2017-05-25T08:54:06.241Z,21.32
2017-05-25T08:55:07.667Z,21.36
2017-05-25T08:56:09.101Z,21.51
2017-05-25T08:57:10.527Z,21.70
2017-05-25T08:58:11.967Z,21.93
2017-05-25T08:59:13.415Z,21.73
2017-05-25T09:00:14.856Z,21.99
2017-05-25T09:01:16.289Z,22.26
2017-05-25T09:02:17.731Z,21.91
2017-05-25T09:03:19.160Z,21.51
2017-05-25T09:04:20.602Z,21.89
2017-05-25T09:05:22.030Z,22.30
2017-05-25T09:06:23.462Z,22.50
2017-05-25T09:07:24.900Z,22.17
2017-05-25T09:08:26.330Z,21.72
2017-05-25T09:09:27.774Z,21.21
2017-05-25T09:10:29.229Z,20.88
2017-05-25T09:11:30.676Z,20.70
2017-05-25T09:12:32.120Z,21.32
2017-05-25T09:13:33.580Z,21.09
2017-05-25T09:14:35.174Z,20.74
2017-05-25T09:15:36.612Z,20.69
2017-05-25T09:16:38.087Z,20.92
2017-05-25T09:17:39.515Z,21.11
2017-05-25T09:18:41.015Z,21.22
2017-05-25T09:19:42.500Z,21.07
2017-05-25T09:20:43.953Z,20.85
2017-05-25T09:21:45.446Z,21.11
2017-05-25T09:22:46.945Z,22.15
2017-05-25T09:23:48.756Z,22.51
2017-05-25T09:24:50.217Z,22.87
2017-05-25T09:25:51.692Z,23.05
2017-05-25T09:26:53.249Z,22.06
2017-05-25T09:27:54.735Z,22.08
2017-05-25T09:28:56.227Z,22.28
2017-05-25T09:29:57.710Z,22.30
2017-05-25T09:30:59.172Z,21.99
2017-05-25T09:32:00.596Z,21.57
2017-05-25T09:33:02.050Z,22.23
2017-05-25T09:34:03.483Z,21.64
2017-05-25T09:35:04.928Z,21.36
2017-05-25T09:36:06.365Z,20.88
2017-05-25T09:37:07.817Z,21.11
2017-05-25T09:38:09.252Z,21.57
2017-05-25T09:39:10.757Z,21.83
2017-05-25T09:40:12.249Z,22.98
2017-05-25T09:41:13.757Z,22.17
2017-05-25T09:42:15.267Z,22.25
2017-05-25T09:43:16.796Z,22.13
2017-05-25T09:44:18.436Z,22.04
2017-05-25T09:45:19.942Z,22.36
2017-05-25T09:46:21.465Z,23.05
2017-05-25T09:47:22.998Z,22.81
2017-05-25T09:48:24.525Z,22.96
2017-05-25T09:49:26.050Z,23.17
2017-05-25T09:50:27.638Z,22.54
2017-05-25T09:51:29.070Z,22.96
2017-05-25T09:52:30.509Z,22.96
2017-05-25T09:53:32.005Z,22.25
2017-05-25T09:54:33.467Z,22.02
2017-05-25T09:55:34.921Z,21.58
2017-05-25T09:56:36.403Z,21.37
2017-05-25T09:57:39.402Z,22.48
2017-05-25T09:58:40.877Z,22.90
2017-05-25T09:59:42.338Z,22.94
2017-05-25T10:00:43.814Z,23.43
2017-05-25T10:01:45.282Z,23.54
2017-05-25T10:02:46.800Z,23.59
2017-05-25T10:03:48.247Z,23.44
2017-05-25T10:04:49.693Z,23.18
2017-05-25T10:05:51.182Z,23.34
2017-05-25T10:06:52.700Z,23.54
2017-05-25T10:07:54.151Z,22.53
2017-05-25T10:08:55.590Z,22.30
2017-05-25T10:09:57.027Z,22.11
2017-05-25T10:10:58.470Z,22.23
2017-05-25T10:11:59.900Z,23.00
2017-05-25T10:13:01.325Z,23.28
2017-05-25T10:14:02.779Z,22.72
2017-05-25T10:15:04.205Z,22.28
2017-05-25T10:16:05.643Z,22.04
2017-05-25T10:17:07.085Z,22.48
2017-05-25T10:18:08.504Z,23.24
2017-05-25T10:19:09.999Z,23.36
2017-05-25T10:20:11.408Z,23.47
2017-05-25T10:21:15.109Z,23.41
2017-05-25T10:22:25.292Z,22.94
2017-05-25T10:23:26.716Z,22.69
2017-05-25T10:24:48.346Z,23.08
2017-05-25T10:25:49.775Z,22.69
2017-05-25T10:26:51.208Z,22.28
2017-05-25T10:27:52.703Z,22.53
2017-05-25T10:28:54.143Z,22.75
2017-05-25T10:29:55.567Z,22.70
2017-05-25T10:30:56.993Z,22.55
2017-05-25T10:31:58.424Z,22.17
2017-05-25T10:32:59.847Z,22.28
2017-05-25T10:34:01.284Z,22.30
2017-05-25T10:35:02.685Z,22.48
2017-05-25T10:36:04.136Z,22.60
2017-05-25T10:37:05.563Z,22.99
2017-05-25T10:38:06.992Z,22.72
2017-05-25T10:39:08.418Z,22.51
2017-05-25T10:40:09.851Z,22.75
2017-05-25T10:41:11.283Z,22.68
2017-05-25T10:42:12.697Z,23.13
2017-05-25T10:43:14.114Z,22.73
2017-05-25T10:44:15.639Z,22.69
2017-05-25T10:45:17.086Z,22.26
2017-05-25T10:46:18.507Z,21.82
2017-05-25T10:47:19.927Z,22.06
2017-05-25T10:48:21.359Z,22.15
2017-05-25T10:49:22.774Z,22.41
2017-05-25T10:50:24.215Z,22.38
2017-05-25T10:51:25.945Z,23.02
2017-05-25T10:52:27.376Z,23.02
2017-05-25T10:53:28.829Z,22.83
2017-05-25T10:54:30.253Z,22.76
2017-05-25T10:55:31.680Z,23.15
2017-05-25T10:56:33.113Z,22.66
2017-05-25T10:57:34.539Z,22.39
2017-05-25T10:58:35.964Z,22.30
2017-05-25T10:59:37.395Z,22.63
2017-05-25T11:00:38.818Z,22.54
2017-05-25T11:01:40.280Z,22.72
2017-05-25T11:02:41.702Z,22.81
2017-05-25T11:03:43.124Z,22.59
2017-05-25T11:04:44.545Z,22.48
2017-05-25T11:05:45.983Z,22.29
2017-05-25T11:06:47.401Z,22.45
2017-05-25T11:07:48.829Z,22.76
2017-05-25T11:08:50.249Z,22.81
2017-05-25T11:09:51.668Z,22.51
2017-05-25T11:10:53.090Z,22.10
2017-05-25T11:11:54.512Z,22.08
2017-05-25T11:12:55.945Z,22.15
2017-05-25T11:13:57.409Z,22.36
2017-05-25T11:14:58.861Z,22.96
2017-05-25T11:16:00.280Z,23.31
2017-05-25T11:17:01.701Z,22.60
2017-05-25T11:18:03.117Z,22.48
2017-05-25T11:19:04.545Z,22.66
2017-05-25T11:20:05.963Z,22.83
2017-05-25T11:21:07.416Z,22.48
2017-05-25T11:22:08.856Z,22.60
2017-05-25T11:23:10.276Z,22.11
2017-05-25T11:24:11.698Z,22.53
2017-05-25T11:25:13.138Z,22.36
2017-05-25T11:26:14.568Z,22.51
2017-05-25T11:27:16.006Z,22.80
2017-05-25T11:28:17.438Z,22.69
2017-05-25T11:29:18.849Z,22.20
2017-05-25T11:30:20.290Z,22.45
2017-05-25T11:31:21.719Z,22.59
2017-05-25T11:32:23.133Z,22.55
2017-05-25T11:33:24.555Z,22.41
2017-05-25T11:34:25.991Z,22.43
2017-05-25T11:35:27.417Z,22.48
2017-05-25T11:36:28.843Z,22.07
2017-05-25T11:37:30.259Z,22.30
2017-05-25T11:38:31.699Z,22.62
2017-05-25T11:39:33.105Z,22.45
2017-05-25T11:40:34.526Z,22.55
2017-05-25T11:41:35.947Z,22.70
2017-05-25T11:42:37.445Z,22.75
2017-05-25T11:43:38.872Z,22.76
2017-05-25T11:44:40.292Z,22.83
2017-05-25T11:45:41.707Z,22.65
2017-05-25T11:46:43.135Z,22.75
2017-05-25T11:47:44.573Z,22.66
2017-05-25T11:48:46.002Z,23.17
2017-05-25T11:49:47.440Z,22.59
2017-05-25T11:50:48.861Z,22.53
2017-05-25T11:51:50.304Z,22.80
2017-05-25T11:52:51.722Z,22.50
2017-05-25T11:53:53.154Z,22.62
2017-05-25T11:54:54.577Z,22.59
2017-05-25T11:55:56.011Z,22.47
2017-05-25T11:56:57.434Z,22.72
2017-05-25T11:57:58.857Z,22.69
2017-05-25T11:59:00.279Z,22.94
2017-05-25T12:00:01.736Z,23.08
2017-05-25T12:01:03.159Z,22.91
2017-05-25T12:02:04.576Z,22.80
2017-05-25T12:03:05.996Z,22.99
2017-05-25T12:04:07.424Z,22.98
2017-05-25T12:05:08.852Z,23.00
2017-05-25T12:06:10.275Z,22.93
2017-05-25T12:07:11.699Z,22.94
2017-05-25T12:08:13.137Z,22.83
2017-05-25T12:09:14.568Z,23.09
2017-05-25T12:10:16.040Z,22.83
2017-05-25T12:11:17.413Z,22.94
2017-05-25T12:12:18.834Z,22.84
2017-05-25T12:13:20.266Z,22.98
2017-05-25T12:14:21.697Z,22.91
2017-05-25T12:15:23.114Z,22.99
2017-05-25T12:16:24.555Z,23.03
2017-05-25T12:17:25.986Z,23.28
2017-05-25T12:18:27.421Z,23.06
2017-05-25T12:19:28.908Z,23.25
2017-05-25T12:20:30.328Z,23.34
2017-05-25T12:21:31.789Z,23.06
2017-05-25T12:22:33.221Z,23.18
2017-05-25T12:23:34.631Z,23.17
2017-05-25T12:24:36.064Z,23.05
2017-05-25T12:25:37.486Z,22.91
2017-05-25T12:26:38.919Z,22.84
2017-05-25T12:27:40.365Z,22.84
2017-05-25T12:28:41.784Z,23.03
2017-05-25T12:29:43.212Z,23.44
2017-05-25T12:30:44.634Z,23.56
2017-05-25T12:31:46.058Z,23.32
2017-05-25T12:32:47.489Z,23.36
2017-05-25T12:33:48.909Z,23.28
2017-05-25T12:34:50.337Z,23.69
2017-05-25T12:35:51.763Z,23.41
2017-05-25T12:36:53.176Z,23.44
2017-05-25T12:37:54.601Z,23.68
2017-05-25T12:38:56.029Z,23.34
2017-05-25T12:39:57.453Z,23.36
2017-05-25T12:40:58.884Z,23.62
2017-05-25T12:42:00.306Z,23.32
2017-05-25T12:43:01.749Z,23.73
2017-05-25T12:44:03.184Z,23.36
2017-05-25T12:44:44.010Z,23.56
2017-05-25T12:45:45.434Z,24.13
2017-05-25T12:46:46.878Z,24.16
2017-05-25T12:47:48.368Z,24.51
2017-05-25T12:48:50.224Z,24.40
2017-05-25T12:49:51.665Z,24.40
2017-05-25T12:50:53.235Z,24.57
2017-05-25T12:51:54.882Z,24.85
2017-05-25T12:52:56.408Z,24.69
2017-05-25T12:53:57.835Z,24.78
2017-05-25T12:54:59.298Z,24.61
2017-05-25T12:56:00.721Z,24.80
2017-05-25T12:57:02.305Z,24.78
2017-05-25T12:58:03.839Z,24.68
2017-05-25T12:59:05.257Z,24.53
2017-05-25T13:00:06.684Z,24.48
2017-05-25T13:01:08.124Z,24.55
2017-05-25T13:02:09.566Z,24.69
2017-05-25T13:03:11.047Z,24.16
2017-05-25T13:04:12.483Z,24.39
2017-05-25T13:05:13.949Z,24.47
2017-05-25T13:06:15.361Z,24.20
2017-05-25T13:07:16.786Z,24.36
2017-05-25T13:08:18.232Z,24.55
2017-05-25T13:09:19.652Z,24.48
2017-05-25T13:10:21.086Z,24.48
2017-05-25T13:11:22.543Z,24.50
2017-05-25T13:12:23.984Z,24.51
2017-05-25T13:13:25.432Z,24.48
2017-05-25T13:14:26.858Z,24.26